sensor_id;sensor_type;location;lat;lon;timestamp;temperature;humidity
52044;DHT22;38053;53.100;6.078;2022-12-07T00:02:18;3.10;99.90
52044;DHT22;38053;53.100;6.078;2022-12-07T00:04:44;3.10;99.90
52044;DHT22;38053;53.100;6.078;2022-12-07T00:07:09;3.20;99.90
52044;DHT22;38053;53.100;6.078;2022-12-07T00:09:35;3.20;99.90
52044;DHT22;38053;53.100;6.078;2022-12-07T00:12:01;3.30;99.90
52044;DHT22;38053;53.100;6.078;2022-12-07T00:14:26;3.30;99.90
52044;DHT22;38053;53.100;6.078;2022-12-07T00:16:52;3.50;99.90
52044;DHT22;38053;53.100;6.078;2022-12-07T00:19:18;3.60;99.90
52044;DHT22;38053;53.100;6.078;2022-12-07T00:21:44;3.60;99.90
52044;DHT22;38053;53.100;6.078;2022-12-07T00:24:10;3.60;99.90
52044;DHT22;38053;53.100;6.078;2022-12-07T00:26:38;3.60;99.90
52044;DHT22;38053;53.100;6.078;2022-12-07T00:29:07;3.60;99.90
52044;DHT22;38053;53.100;6.078;2022-12-07T00:31:40;3.50;99.90
52044;DHT22;38053;53.100;6.078;2022-12-07T00:34:07;3.50;99.90
52044;DHT22;38053;53.100;6.078;2022-12-07T00:36:33;3.40;99.90
52044;DHT22;38053;53.100;6.078;2022-12-07T00:38:59;3.30;99.90
52044;DHT22;38053;53.100;6.078;2022-12-07T00:41:26;3.30;99.90
52044;DHT22;38053;53.100;6.078;2022-12-07T00:43:52;3.30;99.90
52044;DHT22;38053;53.100;6.078;2022-12-07T00:46:19;3.20;99.90
52044;DHT22;38053;53.100;6.078;2022-12-07T00:48:45;3.20;99.90
52044;DHT22;38053;53.100;6.078;2022-12-07T00:51:13;3.20;99.90
52044;DHT22;38053;53.100;6.078;2022-12-07T00:53:40;3.20;99.90
52044;DHT22;38053;53.100;6.078;2022-12-07T00:56:14;3.20;99.90
52044;DHT22;38053;53.100;6.078;2022-12-07T00:58:40;3.30;99.90
52044;DHT22;38053;53.100;6.078;2022-12-07T01:01:07;3.30;99.90
52044;DHT22;38053;53.100;6.078;2022-12-07T01:03:33;3.30;99.90
52044;DHT22;38053;53.100;6.078;2022-12-07T01:05:59;3.40;99.90
52044;DHT22;38053;53.100;6.078;2022-12-07T01:08:26;3.40;99.90
52044;DHT22;38053;53.100;6.078;2022-12-07T01:11:07;3.40;99.90
52044;DHT22;38053;53.100;6.078;2022-12-07T01:13:34;3.50;99.90
52044;DHT22;38053;53.100;6.078;2022-12-07T01:16:02;3.50;99.90
52044;DHT22;38053;53.100;6.078;2022-12-07T01:18:30;3.50;99.90
52044;DHT22;38053;53.100;6.078;2022-12-07T01:23:30;3.50;99.90
52044;DHT22;38053;53.100;6.078;2022-12-07T01:26:01;3.40;99.90
52044;DHT22;38053;53.100;6.078;2022-12-07T01:28:27;3.40;99.90
52044;DHT22;38053;53.100;6.078;2022-12-07T01:33:23;3.30;99.90
52044;DHT22;38053;53.100;6.078;2022-12-07T01:35:48;3.30;99.90
52044;DHT22;38053;53.100;6.078;2022-12-07T01:38:14;3.30;99.90
52044;DHT22;38053;53.100;6.078;2022-12-07T01:40:40;3.30;99.90
52044;DHT22;38053;53.100;6.078;2022-12-07T01:43:16;3.30;99.90
52044;DHT22;38053;53.100;6.078;2022-12-07T01:45:44;3.30;99.90
52044;DHT22;38053;53.100;6.078;2022-12-07T01:48:11;3.30;99.90
52044;DHT22;38053;53.100;6.078;2022-12-07T01:50:39;3.40;99.90
52044;DHT22;38053;53.100;6.078;2022-12-07T01:53:06;3.40;99.90
52044;DHT22;38053;53.100;6.078;2022-12-07T01:55:38;3.50;99.90
52044;DHT22;38053;53.100;6.078;2022-12-07T01:58:05;3.50;99.90
52044;DHT22;38053;53.100;6.078;2022-12-07T02:00:32;3.50;99.90
52044;DHT22;38053;53.100;6.078;2022-12-07T02:05:41;3.60;99.90
52044;DHT22;38053;53.100;6.078;2022-12-07T02:08:08;3.60;99.90
52044;DHT22;38053;53.100;6.078;2022-12-07T02:10:34;3.70;99.90
52044;DHT22;38053;53.100;6.078;2022-12-07T02:31:33;3.40;99.90
52044;DHT22;38053;53.100;6.078;2022-12-07T02:34:11;3.40;99.90
52044;DHT22;38053;53.100;6.078;2022-12-07T02:36:43;3.30;99.90
52044;DHT22;38053;53.100;6.078;2022-12-07T02:39:18;3.30;99.90
52044;DHT22;38053;53.100;6.078;2022-12-07T02:41:58;3.20;99.90
52044;DHT22;38053;53.100;6.078;2022-12-07T02:44:28;3.10;99.90
52044;DHT22;38053;53.100;6.078;2022-12-07T02:47:06;3.10;99.90
52044;DHT22;38053;53.100;6.078;2022-12-07T02:49:36;3.10;99.90
52044;DHT22;38053;53.100;6.078;2022-12-07T02:52:02;3.20;99.90
52044;DHT22;38053;53.100;6.078;2022-12-07T02:54:27;3.20;99.90
52044;DHT22;38053;53.100;6.078;2022-12-07T03:13:28;3.00;99.90
52044;DHT22;38053;53.100;6.078;2022-12-07T03:16:14;3.00;99.90
52044;DHT22;38053;53.100;6.078;2022-12-07T03:19:02;2.90;99.90
52044;DHT22;38053;53.100;6.078;2022-12-07T03:21:35;2.90;99.90
52044;DHT22;38053;53.100;6.078;2022-12-07T03:24:07;2.90;99.90
52044;DHT22;38053;53.100;6.078;2022-12-07T03:26:40;2.80;99.90
52044;DHT22;38053;53.100;6.078;2022-12-07T03:29:20;2.80;99.90
52044;DHT22;38053;53.100;6.078;2022-12-07T03:31:54;2.90;99.90
52044;DHT22;38053;53.100;6.078;2022-12-07T03:34:31;2.90;99.90
52044;DHT22;38053;53.100;6.078;2022-12-07T03:37:05;2.90;99.90
52044;DHT22;38053;53.100;6.078;2022-12-07T03:42:06;3.00;99.90
52044;DHT22;38053;53.100;6.078;2022-12-07T03:44:34;2.90;99.90
52044;DHT22;38053;53.100;6.078;2022-12-07T03:47:16;2.90;99.90
52044;DHT22;38053;53.100;6.078;2022-12-07T03:52:51;2.90;99.90
52044;DHT22;38053;53.100;6.078;2022-12-07T03:55:33;2.90;99.90
52044;DHT22;38053;53.100;6.078;2022-12-07T03:58:07;2.90;99.90
52044;DHT22;38053;53.100;6.078;2022-12-07T04:00:34;3.00;99.90
52044;DHT22;38053;53.100;6.078;2022-12-07T04:03:00;3.10;99.90
52044;DHT22;38053;53.100;6.078;2022-12-07T04:05:26;3.20;99.90
52044;DHT22;38053;53.100;6.078;2022-12-07T04:07:51;3.30;99.90
52044;DHT22;38053;53.100;6.078;2022-12-07T04:10:18;3.40;99.90
52044;DHT22;38053;53.100;6.078;2022-12-07T04:12:43;3.40;99.90
52044;DHT22;38053;53.100;6.078;2022-12-07T04:15:09;3.40;99.90
52044;DHT22;38053;53.100;6.078;2022-12-07T04:17:35;3.40;99.90
52044;DHT22;38053;53.100;6.078;2022-12-07T04:20:01;3.40;99.90
52044;DHT22;38053;53.100;6.078;2022-12-07T04:22:27;3.40;99.90
52044;DHT22;38053;53.100;6.078;2022-12-07T04:24:53;3.50;99.90
52044;DHT22;38053;53.100;6.078;2022-12-07T04:27:18;3.50;99.90
52044;DHT22;38053;53.100;6.078;2022-12-07T04:29:44;3.50;99.90
52044;DHT22;38053;53.100;6.078;2022-12-07T04:32:10;3.40;99.90
52044;DHT22;38053;53.100;6.078;2022-12-07T04:34:35;3.40;99.90
52044;DHT22;38053;53.100;6.078;2022-12-07T04:37:01;3.40;99.90
52044;DHT22;38053;53.100;6.078;2022-12-07T04:39:31;3.40;99.90
52044;DHT22;38053;53.100;6.078;2022-12-07T04:41:58;3.30;99.90
52044;DHT22;38053;53.100;6.078;2022-12-07T04:44:25;3.20;99.90
52044;DHT22;38053;53.100;6.078;2022-12-07T04:46:52;3.10;99.90
52044;DHT22;38053;53.100;6.078;2022-12-07T04:49:18;3.10;99.90
52044;DHT22;38053;53.100;6.078;2022-12-07T04:51:44;3.00;99.90
52044;DHT22;38053;53.100;6.078;2022-12-07T04:54:11;3.00;99.90
52044;DHT22;38053;53.100;6.078;2022-12-07T04:56:37;2.90;99.90
52044;DHT22;38053;53.100;6.078;2022-12-07T04:59:03;2.90;99.90
52044;DHT22;38053;53.100;6.078;2022-12-07T05:01:29;2.90;99.90
52044;DHT22;38053;53.100;6.078;2022-12-07T05:03:54;2.80;99.90
52044;DHT22;38053;53.100;6.078;2022-12-07T05:06:20;2.80;99.90
52044;DHT22;38053;53.100;6.078;2022-12-07T05:08:46;2.80;99.90
52044;DHT22;38053;53.100;6.078;2022-12-07T05:11:13;2.80;99.90
52044;DHT22;38053;53.100;6.078;2022-12-07T05:13:57;2.80;99.90
52044;DHT22;38053;53.100;6.078;2022-12-07T05:16:23;2.70;99.90
52044;DHT22;38053;53.100;6.078;2022-12-07T05:18:49;2.70;99.90
52044;DHT22;38053;53.100;6.078;2022-12-07T05:21:14;2.70;99.90
52044;DHT22;38053;53.100;6.078;2022-12-07T05:23:40;2.70;99.90
52044;DHT22;38053;53.100;6.078;2022-12-07T05:26:06;2.70;99.90
52044;DHT22;38053;53.100;6.078;2022-12-07T05:28:31;2.80;99.90
52044;DHT22;38053;53.100;6.078;2022-12-07T05:30:57;2.80;99.90
52044;DHT22;38053;53.100;6.078;2022-12-07T05:33:23;2.80;99.90
52044;DHT22;38053;53.100;6.078;2022-12-07T05:35:48;2.80;99.90
52044;DHT22;38053;53.100;6.078;2022-12-07T05:38:14;2.80;99.90
52044;DHT22;38053;53.100;6.078;2022-12-07T05:40:39;2.80;99.90
52044;DHT22;38053;53.100;6.078;2022-12-07T05:43:05;2.90;99.90
52044;DHT22;38053;53.100;6.078;2022-12-07T05:45:31;2.90;99.90
52044;DHT22;38053;53.100;6.078;2022-12-07T05:47:57;3.00;99.90
52044;DHT22;38053;53.100;6.078;2022-12-07T05:50:22;3.10;99.90
52044;DHT22;38053;53.100;6.078;2022-12-07T05:52:48;3.10;99.90
52044;DHT22;38053;53.100;6.078;2022-12-07T05:55:13;3.10;99.90
52044;DHT22;38053;53.100;6.078;2022-12-07T05:57:39;3.10;99.90
52044;DHT22;38053;53.100;6.078;2022-12-07T06:00:05;3.10;99.90
52044;DHT22;38053;53.100;6.078;2022-12-07T06:02:31;3.10;99.90
52044;DHT22;38053;53.100;6.078;2022-12-07T06:04:57;3.00;99.90
52044;DHT22;38053;53.100;6.078;2022-12-07T06:07:22;3.00;99.90
52044;DHT22;38053;53.100;6.078;2022-12-07T06:09:48;3.00;99.90
52044;DHT22;38053;53.100;6.078;2022-12-07T06:12:14;3.00;99.90
52044;DHT22;38053;53.100;6.078;2022-12-07T06:14:58;3.10;99.90
52044;DHT22;38053;53.100;6.078;2022-12-07T06:17:24;3.00;99.90
52044;DHT22;38053;53.100;6.078;2022-12-07T06:19:50;3.10;99.90
52044;DHT22;38053;53.100;6.078;2022-12-07T06:22:16;3.10;99.90
52044;DHT22;38053;53.100;6.078;2022-12-07T06:24:43;3.10;99.90
52044;DHT22;38053;53.100;6.078;2022-12-07T06:27:09;3.10;99.90
52044;DHT22;38053;53.100;6.078;2022-12-07T06:29:35;3.20;99.90
52044;DHT22;38053;53.100;6.078;2022-12-07T06:32:01;3.10;99.90
52044;DHT22;38053;53.100;6.078;2022-12-07T06:34:27;3.20;99.90
52044;DHT22;38053;53.100;6.078;2022-12-07T06:36:53;3.10;99.90
52044;DHT22;38053;53.100;6.078;2022-12-07T06:39:27;3.10;99.90
52044;DHT22;38053;53.100;6.078;2022-12-07T06:41:53;3.00;99.90
52044;DHT22;38053;53.100;6.078;2022-12-07T06:44:19;3.00;99.90
52044;DHT22;38053;53.100;6.078;2022-12-07T06:46:45;2.90;99.90
52044;DHT22;38053;53.100;6.078;2022-12-07T06:49:11;2.80;99.90
52044;DHT22;38053;53.100;6.078;2022-12-07T06:51:37;2.80;99.90
52044;DHT22;38053;53.100;6.078;2022-12-07T06:54:10;2.70;99.90
52044;DHT22;38053;53.100;6.078;2022-12-07T06:56:36;2.70;99.90
52044;DHT22;38053;53.100;6.078;2022-12-07T06:59:02;2.70;99.90
52044;DHT22;38053;53.100;6.078;2022-12-07T07:01:28;2.80;99.90
52044;DHT22;38053;53.100;6.078;2022-12-07T07:03:54;2.80;99.90
52044;DHT22;38053;53.100;6.078;2022-12-07T07:06:20;2.90;99.90
52044;DHT22;38053;53.100;6.078;2022-12-07T07:08:45;2.90;99.90
52044;DHT22;38053;53.100;6.078;2022-12-07T07:11:11;3.10;99.90
52044;DHT22;38053;53.100;6.078;2022-12-07T07:13:37;3.10;99.90
52044;DHT22;38053;53.100;6.078;2022-12-07T07:16:03;3.10;99.90
52044;DHT22;38053;53.100;6.078;2022-12-07T07:18:29;3.10;99.90
52044;DHT22;38053;53.100;6.078;2022-12-07T07:20:55;3.10;99.90
52044;DHT22;38053;53.100;6.078;2022-12-07T07:23:21;3.00;99.90
52044;DHT22;38053;53.100;6.078;2022-12-07T07:25:47;3.00;99.90
52044;DHT22;38053;53.100;6.078;2022-12-07T07:28:13;3.00;99.90
52044;DHT22;38053;53.100;6.078;2022-12-07T07:30:39;2.90;99.90
52044;DHT22;38053;53.100;6.078;2022-12-07T07:33:06;2.90;99.90
52044;DHT22;38053;53.100;6.078;2022-12-07T07:35:33;2.80;99.90
52044;DHT22;38053;53.100;6.078;2022-12-07T07:37:59;2.80;99.90
52044;DHT22;38053;53.100;6.078;2022-12-07T07:40:25;2.70;99.90
52044;DHT22;38053;53.100;6.078;2022-12-07T07:42:53;2.70;99.90
52044;DHT22;38053;53.100;6.078;2022-12-07T07:45:20;2.60;99.90
52044;DHT22;38053;53.100;6.078;2022-12-07T07:47:46;2.60;99.90
52044;DHT22;38053;53.100;6.078;2022-12-07T07:50:12;2.50;99.90
52044;DHT22;38053;53.100;6.078;2022-12-07T07:52:38;2.40;99.90
52044;DHT22;38053;53.100;6.078;2022-12-07T07:55:04;2.50;99.90
52044;DHT22;38053;53.100;6.078;2022-12-07T07:57:30;2.50;99.90
52044;DHT22;38053;53.100;6.078;2022-12-07T07:59:56;2.60;99.90
52044;DHT22;38053;53.100;6.078;2022-12-07T08:02:22;2.80;99.90
52044;DHT22;38053;53.100;6.078;2022-12-07T08:04:48;2.80;99.90
52044;DHT22;38053;53.100;6.078;2022-12-07T08:07:14;2.80;99.90
52044;DHT22;38053;53.100;6.078;2022-12-07T08:09:41;2.80;99.90
52044;DHT22;38053;53.100;6.078;2022-12-07T08:12:07;2.80;99.90
52044;DHT22;38053;53.100;6.078;2022-12-07T08:14:33;2.70;99.90
52044;DHT22;38053;53.100;6.078;2022-12-07T08:16:59;2.70;99.90
52044;DHT22;38053;53.100;6.078;2022-12-07T08:19:25;2.60;99.90
52044;DHT22;38053;53.100;6.078;2022-12-07T08:21:51;2.60;99.90
52044;DHT22;38053;53.100;6.078;2022-12-07T08:24:17;2.50;99.90
52044;DHT22;38053;53.100;6.078;2022-12-07T08:26:43;2.40;99.90
52044;DHT22;38053;53.100;6.078;2022-12-07T08:29:08;2.30;99.90
52044;DHT22;38053;53.100;6.078;2022-12-07T08:31:34;2.30;99.90
52044;DHT22;38053;53.100;6.078;2022-12-07T08:34:00;2.20;99.90
52044;DHT22;38053;53.100;6.078;2022-12-07T08:36:26;2.30;99.90
52044;DHT22;38053;53.100;6.078;2022-12-07T08:38:51;2.30;99.90
52044;DHT22;38053;53.100;6.078;2022-12-07T08:41:18;2.40;99.90
52044;DHT22;38053;53.100;6.078;2022-12-07T08:43:43;2.50;99.90
52044;DHT22;38053;53.100;6.078;2022-12-07T08:46:24;2.60;99.90
52044;DHT22;38053;53.100;6.078;2022-12-07T08:51:17;2.80;99.90
52044;DHT22;38053;53.100;6.078;2022-12-07T08:53:43;2.90;99.90
52044;DHT22;38053;53.100;6.078;2022-12-07T08:56:09;3.00;99.90
52044;DHT22;38053;53.100;6.078;2022-12-07T08:58:36;3.00;99.90
52044;DHT22;38053;53.100;6.078;2022-12-07T09:01:03;3.10;99.90
52044;DHT22;38053;53.100;6.078;2022-12-07T09:03:30;3.10;99.90
52044;DHT22;38053;53.100;6.078;2022-12-07T09:05:55;3.20;99.90
52044;DHT22;38053;53.100;6.078;2022-12-07T09:08:23;3.20;99.90
52044;DHT22;38053;53.100;6.078;2022-12-07T09:10:51;3.30;99.90
52044;DHT22;38053;53.100;6.078;2022-12-07T09:13:17;3.30;99.90
52044;DHT22;38053;53.100;6.078;2022-12-07T09:15:42;3.30;99.90
52044;DHT22;38053;53.100;6.078;2022-12-07T09:18:08;3.20;99.90
52044;DHT22;38053;53.100;6.078;2022-12-07T09:20:34;3.20;99.90
52044;DHT22;38053;53.100;6.078;2022-12-07T09:22:59;3.20;99.90
52044;DHT22;38053;53.100;6.078;2022-12-07T09:25:25;3.20;99.90
52044;DHT22;38053;53.100;6.078;2022-12-07T09:27:56;3.10;99.90
52044;DHT22;38053;53.100;6.078;2022-12-07T09:30:22;3.10;99.90
52044;DHT22;38053;53.100;6.078;2022-12-07T09:32:48;3.10;99.90
52044;DHT22;38053;53.100;6.078;2022-12-07T09:35:13;3.10;99.90
52044;DHT22;38053;53.100;6.078;2022-12-07T09:37:39;3.10;99.90
52044;DHT22;38053;53.100;6.078;2022-12-07T09:40:05;3.10;99.90
52044;DHT22;38053;53.100;6.078;2022-12-07T09:42:37;3.20;99.90
52044;DHT22;38053;53.100;6.078;2022-12-07T09:45:07;3.30;99.90
52044;DHT22;38053;53.100;6.078;2022-12-07T09:47:37;3.40;99.90
52044;DHT22;38053;53.100;6.078;2022-12-07T09:50:13;3.70;99.90
52044;DHT22;38053;53.100;6.078;2022-12-07T09:52:40;3.90;99.90
52044;DHT22;38053;53.100;6.078;2022-12-07T09:55:36;4.00;99.90
52044;DHT22;38053;53.100;6.078;2022-12-07T09:58:00;4.10;99.90
52044;DHT22;38053;53.100;6.078;2022-12-07T10:00:26;4.20;99.90
52044;DHT22;38053;53.100;6.078;2022-12-07T10:02:58;4.20;99.90
52044;DHT22;38053;53.100;6.078;2022-12-07T10:05:32;4.20;99.90
52044;DHT22;38053;53.100;6.078;2022-12-07T10:08:00;4.20;99.90
52044;DHT22;38053;53.100;6.078;2022-12-07T10:10:31;4.20;99.90
52044;DHT22;38053;53.100;6.078;2022-12-07T10:13:01;4.20;99.90
52044;DHT22;38053;53.100;6.078;2022-12-07T10:18:18;4.10;99.90
52044;DHT22;38053;53.100;6.078;2022-12-07T10:20:46;4.20;99.90
52044;DHT22;38053;53.100;6.078;2022-12-07T10:23:17;4.20;99.90
52044;DHT22;38053;53.100;6.078;2022-12-07T10:25:44;4.20;99.90
52044;DHT22;38053;53.100;6.078;2022-12-07T10:28:16;4.20;99.90
52044;DHT22;38053;53.100;6.078;2022-12-07T10:33:33;4.30;99.90
52044;DHT22;38053;53.100;6.078;2022-12-07T10:35:59;4.40;99.90
52044;DHT22;38053;53.100;6.078;2022-12-07T10:38:27;4.40;99.90
52044;DHT22;38053;53.100;6.078;2022-12-07T10:41:04;4.50;99.90
52044;DHT22;38053;53.100;6.078;2022-12-07T10:43:30;4.60;99.90
52044;DHT22;38053;53.100;6.078;2022-12-07T10:51:37;5.20;99.90
52044;DHT22;38053;53.100;6.078;2022-12-07T10:57:10;5.40;99.90
52044;DHT22;38053;53.100;6.078;2022-12-07T11:02:55;5.40;99.90
52044;DHT22;38053;53.100;6.078;2022-12-07T11:11:02;5.20;99.90
52044;DHT22;38053;53.100;6.078;2022-12-07T11:13:40;5.10;99.90
52044;DHT22;38053;53.100;6.078;2022-12-07T11:22:00;4.80;99.90
52044;DHT22;38053;53.100;6.078;2022-12-07T11:29:50;4.70;99.90
52044;DHT22;38053;53.100;6.078;2022-12-07T11:38:17;4.80;99.90
52044;DHT22;38053;53.100;6.078;2022-12-07T11:40:53;5.20;99.90
52044;DHT22;38053;53.100;6.078;2022-12-07T11:43:27;5.70;99.90
52044;DHT22;38053;53.100;6.078;2022-12-07T11:46:03;5.90;99.90
52044;DHT22;38053;53.100;6.078;2022-12-07T11:49:03;6.00;99.90
52044;DHT22;38053;53.100;6.078;2022-12-07T11:51:36;6.00;99.90
52044;DHT22;38053;53.100;6.078;2022-12-07T11:54:11;5.90;99.90
52044;DHT22;38053;53.100;6.078;2022-12-07T11:56:37;5.80;99.90
52044;DHT22;38053;53.100;6.078;2022-12-07T12:07:01;4.90;99.90
52044;DHT22;38053;53.100;6.078;2022-12-07T12:09:33;4.60;99.90
52044;DHT22;38053;53.100;6.078;2022-12-07T12:17:28;4.10;99.90
52044;DHT22;38053;53.100;6.078;2022-12-07T12:20:18;4.00;99.90
52044;DHT22;38053;53.100;6.078;2022-12-07T12:22:53;3.80;99.90
52044;DHT22;38053;53.100;6.078;2022-12-07T12:25:29;3.80;99.90
52044;DHT22;38053;53.100;6.078;2022-12-07T12:27:58;3.70;99.90
52044;DHT22;38053;53.100;6.078;2022-12-07T12:33:16;3.70;99.90
52044;DHT22;38053;53.100;6.078;2022-12-07T12:35:45;3.80;99.90
52044;DHT22;38053;53.100;6.078;2022-12-07T12:38:34;3.80;99.90
52044;DHT22;38053;53.100;6.078;2022-12-07T12:46:55;4.00;99.90
52044;DHT22;38053;53.100;6.078;2022-12-07T12:51:59;4.40;99.90
52044;DHT22;38053;53.100;6.078;2022-12-07T12:54:28;4.50;99.90
52044;DHT22;38053;53.100;6.078;2022-12-07T12:59:31;4.50;99.90
52044;DHT22;38053;53.100;6.078;2022-12-07T13:02:26;4.50;99.90
52044;DHT22;38053;53.100;6.078;2022-12-07T13:15:49;4.40;99.90
52044;DHT22;38053;53.100;6.078;2022-12-07T13:20:48;4.50;99.90
52044;DHT22;38053;53.100;6.078;2022-12-07T13:23:18;4.40;99.90
52044;DHT22;38053;53.100;6.078;2022-12-07T13:28:42;4.50;99.90
52044;DHT22;38053;53.100;6.078;2022-12-07T13:34:04;4.40;99.90
52044;DHT22;38053;53.100;6.078;2022-12-07T13:36:34;4.40;99.90
52044;DHT22;38053;53.100;6.078;2022-12-07T13:39:18;4.40;99.90
52044;DHT22;38053;53.100;6.078;2022-12-07T13:41:50;4.40;99.90
52044;DHT22;38053;53.100;6.078;2022-12-07T13:44:17;4.40;99.90
52044;DHT22;38053;53.100;6.078;2022-12-07T13:47:13;4.40;99.90
52044;DHT22;38053;53.100;6.078;2022-12-07T13:49:53;4.40;99.90
52044;DHT22;38053;53.100;6.078;2022-12-07T13:52:23;4.40;99.90
52044;DHT22;38053;53.100;6.078;2022-12-07T13:57:32;4.30;99.90
52044;DHT22;38053;53.100;6.078;2022-12-07T14:00:01;4.30;99.90
52044;DHT22;38053;53.100;6.078;2022-12-07T14:05:05;4.30;99.90
52044;DHT22;38053;53.100;6.078;2022-12-07T14:07:33;4.20;99.90
52044;DHT22;38053;53.100;6.078;2022-12-07T14:10:01;4.20;99.90
52044;DHT22;38053;53.100;6.078;2022-12-07T14:12:28;4.10;99.90
52044;DHT22;38053;53.100;6.078;2022-12-07T14:14:55;4.10;99.90
52044;DHT22;38053;53.100;6.078;2022-12-07T14:17:24;4.10;99.90
52044;DHT22;38053;53.100;6.078;2022-12-07T14:19:58;4.00;99.90
52044;DHT22;38053;53.100;6.078;2022-12-07T14:25:01;3.90;99.90
52044;DHT22;38053;53.100;6.078;2022-12-07T14:27:32;3.90;99.90
52044;DHT22;38053;53.100;6.078;2022-12-07T14:30:00;3.90;99.90
52044;DHT22;38053;53.100;6.078;2022-12-07T14:32:28;3.80;99.90
52044;DHT22;38053;53.100;6.078;2022-12-07T14:34:56;3.80;99.90
52044;DHT22;38053;53.100;6.078;2022-12-07T14:37:22;3.80;99.90
52044;DHT22;38053;53.100;6.078;2022-12-07T14:39:48;3.70;99.90
52044;DHT22;38053;53.100;6.078;2022-12-07T14:42:14;3.70;99.90
52044;DHT22;38053;53.100;6.078;2022-12-07T14:44:39;3.80;99.90
52044;DHT22;38053;53.100;6.078;2022-12-07T14:47:07;3.80;99.90
52044;DHT22;38053;53.100;6.078;2022-12-07T14:49:33;3.80;99.90
52044;DHT22;38053;53.100;6.078;2022-12-07T14:51:59;3.80;99.90
52044;DHT22;38053;53.100;6.078;2022-12-07T14:54:28;3.80;99.90
52044;DHT22;38053;53.100;6.078;2022-12-07T14:56:54;3.70;99.90
52044;DHT22;38053;53.100;6.078;2022-12-07T14:59:19;3.70;99.90
52044;DHT22;38053;53.100;6.078;2022-12-07T15:01:45;3.70;99.90
52044;DHT22;38053;53.100;6.078;2022-12-07T15:04:11;3.70;99.90
52044;DHT22;38053;53.100;6.078;2022-12-07T15:06:37;3.70;99.90
52044;DHT22;38053;53.100;6.078;2022-12-07T15:09:03;3.60;99.90
52044;DHT22;38053;53.100;6.078;2022-12-07T15:11:29;3.60;99.90
52044;DHT22;38053;53.100;6.078;2022-12-07T15:13:54;3.60;99.90
52044;DHT22;38053;53.100;6.078;2022-12-07T15:16:39;3.60;99.90
52044;DHT22;38053;53.100;6.078;2022-12-07T15:19:08;3.60;99.90
52044;DHT22;38053;53.100;6.078;2022-12-07T15:21:35;3.60;99.90
52044;DHT22;38053;53.100;6.078;2022-12-07T15:24:01;3.60;99.90
52044;DHT22;38053;53.100;6.078;2022-12-07T15:26:26;3.60;99.90
52044;DHT22;38053;53.100;6.078;2022-12-07T15:28:53;3.60;99.90
52044;DHT22;38053;53.100;6.078;2022-12-07T15:31:19;3.50;99.90
52044;DHT22;38053;53.100;6.078;2022-12-07T15:33:44;3.50;99.90
52044;DHT22;38053;53.100;6.078;2022-12-07T15:36:20;3.50;99.90
52044;DHT22;38053;53.100;6.078;2022-12-07T15:38:47;3.50;99.90
52044;DHT22;38053;53.100;6.078;2022-12-07T15:41:13;3.50;99.90
52044;DHT22;38053;53.100;6.078;2022-12-07T15:43:38;3.40;99.90
52044;DHT22;38053;53.100;6.078;2022-12-07T15:46:22;3.30;99.90
52044;DHT22;38053;53.100;6.078;2022-12-07T15:48:48;3.30;99.90
52044;DHT22;38053;53.100;6.078;2022-12-07T15:51:14;3.20;99.90
52044;DHT22;38053;53.100;6.078;2022-12-07T15:53:40;3.20;99.90
52044;DHT22;38053;53.100;6.078;2022-12-07T15:56:07;3.20;99.90
52044;DHT22;38053;53.100;6.078;2022-12-07T15:58:33;3.10;99.90
52044;DHT22;38053;53.100;6.078;2022-12-07T16:00:59;3.10;99.90
52044;DHT22;38053;53.100;6.078;2022-12-07T16:03:26;3.10;99.90
52044;DHT22;38053;53.100;6.078;2022-12-07T16:05:52;3.10;99.90
52044;DHT22;38053;53.100;6.078;2022-12-07T16:08:21;3.10;99.90
52044;DHT22;38053;53.100;6.078;2022-12-07T16:10:47;3.00;99.90
52044;DHT22;38053;53.100;6.078;2022-12-07T16:13:12;3.00;99.90
52044;DHT22;38053;53.100;6.078;2022-12-07T16:15:42;2.90;99.90
52044;DHT22;38053;53.100;6.078;2022-12-07T16:18:08;2.90;99.90
52044;DHT22;38053;53.100;6.078;2022-12-07T16:20:34;2.80;99.90
52044;DHT22;38053;53.100;6.078;2022-12-07T16:23:03;2.80;99.90
52044;DHT22;38053;53.100;6.078;2022-12-07T16:25:28;2.80;99.90
52044;DHT22;38053;53.100;6.078;2022-12-07T16:27:54;2.70;99.90
52044;DHT22;38053;53.100;6.078;2022-12-07T16:30:20;2.70;99.90
52044;DHT22;38053;53.100;6.078;2022-12-07T16:32:46;2.70;99.90
52044;DHT22;38053;53.100;6.078;2022-12-07T16:35:12;2.70;99.90
52044;DHT22;38053;53.100;6.078;2022-12-07T16:37:38;2.60;99.90
52044;DHT22;38053;53.100;6.078;2022-12-07T16:40:04;2.60;99.90
52044;DHT22;38053;53.100;6.078;2022-12-07T16:42:32;2.60;99.90
52044;DHT22;38053;53.100;6.078;2022-12-07T16:44:58;2.60;99.90
52044;DHT22;38053;53.100;6.078;2022-12-07T16:47:24;2.70;99.90
52044;DHT22;38053;53.100;6.078;2022-12-07T16:49:50;2.70;99.90
52044;DHT22;38053;53.100;6.078;2022-12-07T16:52:16;2.70;99.90
52044;DHT22;38053;53.100;6.078;2022-12-07T16:54:41;2.70;99.90
52044;DHT22;38053;53.100;6.078;2022-12-07T16:57:08;2.70;99.90
52044;DHT22;38053;53.100;6.078;2022-12-07T16:59:34;2.80;99.90
52044;DHT22;38053;53.100;6.078;2022-12-07T17:01:59;2.80;99.90
52044;DHT22;38053;53.100;6.078;2022-12-07T17:04:25;2.80;99.90
52044;DHT22;38053;53.100;6.078;2022-12-07T17:06:50;2.80;99.90
52044;DHT22;38053;53.100;6.078;2022-12-07T17:09:16;2.80;99.90
52044;DHT22;38053;53.100;6.078;2022-12-07T17:11:44;2.80;99.90
52044;DHT22;38053;53.100;6.078;2022-12-07T17:14:10;2.80;99.90
52044;DHT22;38053;53.100;6.078;2022-12-07T17:16:54;2.80;99.90
52044;DHT22;38053;53.100;6.078;2022-12-07T17:19:20;2.70;99.90
52044;DHT22;38053;53.100;6.078;2022-12-07T17:21:46;2.70;99.90
52044;DHT22;38053;53.100;6.078;2022-12-07T17:24:15;2.70;99.90
52044;DHT22;38053;53.100;6.078;2022-12-07T17:26:42;2.70;99.90
52044;DHT22;38053;53.100;6.078;2022-12-07T17:29:10;2.70;99.90
52044;DHT22;38053;53.100;6.078;2022-12-07T17:31:37;2.70;99.90
52044;DHT22;38053;53.100;6.078;2022-12-07T17:34:03;2.70;99.90
52044;DHT22;38053;53.100;6.078;2022-12-07T17:36:30;2.70;99.90
52044;DHT22;38053;53.100;6.078;2022-12-07T17:38:56;2.70;99.90
52044;DHT22;38053;53.100;6.078;2022-12-07T17:41:24;2.70;99.90
52044;DHT22;38053;53.100;6.078;2022-12-07T17:44:11;2.70;99.90
52044;DHT22;38053;53.100;6.078;2022-12-07T17:46:38;2.80;99.90
52044;DHT22;38053;53.100;6.078;2022-12-07T17:49:04;2.80;99.90
52044;DHT22;38053;53.100;6.078;2022-12-07T17:51:31;2.80;99.90
52044;DHT22;38053;53.100;6.078;2022-12-07T17:54:16;2.80;99.90
52044;DHT22;38053;53.100;6.078;2022-12-07T17:56:42;2.70;99.90
52044;DHT22;38053;53.100;6.078;2022-12-07T17:59:07;2.70;99.90
52044;DHT22;38053;53.100;6.078;2022-12-07T18:01:34;2.70;99.90
52044;DHT22;38053;53.100;6.078;2022-12-07T18:04:00;2.60;99.90
52044;DHT22;38053;53.100;6.078;2022-12-07T18:06:25;2.60;99.90
52044;DHT22;38053;53.100;6.078;2022-12-07T18:08:51;2.50;99.90
52044;DHT22;38053;53.100;6.078;2022-12-07T18:11:18;2.40;99.90
52044;DHT22;38053;53.100;6.078;2022-12-07T18:13:43;2.40;99.90
52044;DHT22;38053;53.100;6.078;2022-12-07T18:16:14;2.30;99.90
52044;DHT22;38053;53.100;6.078;2022-12-07T18:18:42;2.30;99.90